sensor_id;sensor_type;location;lat;lon;timestamp;P1;durP1;ratioP1;P2;durP2;ratioP2
43823;SDS011;29470;53.550;9.926;2023-05-07T00:00:54;15.23;;;9.82;;
43823;SDS011;29470;53.550;9.926;2023-05-07T00:05:57;18.08;;;10.18;;
43823;SDS011;29470;53.550;9.926;2023-05-07T00:11:00;18.48;;;11.45;;
43823;SDS011;29470;53.550;9.926;2023-05-07T00:16:04;17.20;;;10.02;;
43823;SDS011;29470;53.550;9.926;2023-05-07T00:21:07;20.40;;;11.27;;
43823;SDS011;29470;53.550;9.926;2023-05-07T00:26:10;18.83;;;10.27;;
43823;SDS011;29470;53.550;9.926;2023-05-07T00:31:15;14.75;;;7.60;;
43823;SDS011;29470;53.550;9.926;2023-05-07T00:36:19;14.63;;;8.90;;
43823;SDS011;29470;53.550;9.926;2023-05-07T00:41:22;13.55;;;8.40;;
43823;SDS011;29470;53.550;9.926;2023-05-07T00:46:27;14.82;;;8.13;;
43823;SDS011;29470;53.550;9.926;2023-05-07T00:51:33;17.38;;;8.82;;
43823;SDS011;29470;53.550;9.926;2023-05-07T00:56:36;12.65;;;8.30;;
43823;SDS011;29470;53.550;9.926;2023-05-07T01:01:41;12.88;;;7.28;;
43823;SDS011;29470;53.550;9.926;2023-05-07T01:06:44;13.68;;;8.05;;
43823;SDS011;29470;53.550;9.926;2023-05-07T01:11:48;14.23;;;7.65;;
43823;SDS011;29470;53.550;9.926;2023-05-07T01:16:54;14.45;;;7.97;;
43823;SDS011;29470;53.550;9.926;2023-05-07T01:22:01;13.15;;;8.15;;
43823;SDS011;29470;53.550;9.926;2023-05-07T01:27:13;13.63;;;8.07;;
43823;SDS011;29470;53.550;9.926;2023-05-07T01:32:16;12.07;;;7.80;;
43823;SDS011;29470;53.550;9.926;2023-05-07T01:37:24;12.55;;;7.63;;
43823;SDS011;29470;53.550;9.926;2023-05-07T01:42:29;12.05;;;7.18;;
43823;SDS011;29470;53.550;9.926;2023-05-07T01:47:34;10.55;;;7.28;;
43823;SDS011;29470;53.550;9.926;2023-05-07T01:52:38;9.98;;;6.35;;
43823;SDS011;29470;53.550;9.926;2023-05-07T01:57:42;10.43;;;6.68;;
43823;SDS011;29470;53.550;9.926;2023-05-07T02:02:46;11.23;;;6.75;;
43823;SDS011;29470;53.550;9.926;2023-05-07T02:08:04;11.55;;;6.72;;
43823;SDS011;29470;53.550;9.926;2023-05-07T02:13:09;10.68;;;6.90;;
43823;SDS011;29470;53.550;9.926;2023-05-07T02:18:12;11.20;;;7.32;;
43823;SDS011;29470;53.550;9.926;2023-05-07T02:23:15;10.98;;;7.57;;
43823;SDS011;29470;53.550;9.926;2023-05-07T02:28:19;11.63;;;7.63;;
43823;SDS011;29470;53.550;9.926;2023-05-07T02:33:28;11.23;;;7.50;;
43823;SDS011;29470;53.550;9.926;2023-05-07T02:38:31;12.15;;;7.85;;
43823;SDS011;29470;53.550;9.926;2023-05-07T02:43:36;12.20;;;7.85;;
43823;SDS011;29470;53.550;9.926;2023-05-07T02:48:39;11.98;;;7.95;;
43823;SDS011;29470;53.550;9.926;2023-05-07T02:53:42;14.45;;;8.70;;
43823;SDS011;29470;53.550;9.926;2023-05-07T02:58:46;16.58;;;8.93;;
43823;SDS011;29470;53.550;9.926;2023-05-07T03:03:50;15.10;;;8.93;;
43823;SDS011;29470;53.550;9.926;2023-05-07T03:08:53;14.90;;;8.75;;
43823;SDS011;29470;53.550;9.926;2023-05-07T03:13:57;14.38;;;8.23;;
43823;SDS011;29470;53.550;9.926;2023-05-07T03:19:00;14.43;;;8.25;;
43823;SDS011;29470;53.550;9.926;2023-05-07T03:24:04;16.10;;;8.85;;
43823;SDS011;29470;53.550;9.926;2023-05-07T03:29:08;17.00;;;8.98;;
43823;SDS011;29470;53.550;9.926;2023-05-07T03:34:11;17.58;;;9.48;;
43823;SDS011;29470;53.550;9.926;2023-05-07T03:39:16;15.57;;;9.18;;
43823;SDS011;29470;53.550;9.926;2023-05-07T03:44:20;17.40;;;9.90;;
43823;SDS011;29470;53.550;9.926;2023-05-07T03:49:25;16.50;;;9.60;;
43823;SDS011;29470;53.550;9.926;2023-05-07T03:54:28;16.52;;;9.80;;
43823;SDS011;29470;53.550;9.926;2023-05-07T03:59:32;17.83;;;9.52;;
43823;SDS011;29470;53.550;9.926;2023-05-07T04:04:35;15.00;;;9.10;;
43823;SDS011;29470;53.550;9.926;2023-05-07T04:09:38;16.45;;;9.30;;
43823;SDS011;29470;53.550;9.926;2023-05-07T04:14:42;15.70;;;9.60;;
43823;SDS011;29470;53.550;9.926;2023-05-07T04:19:46;14.50;;;9.20;;
43823;SDS011;29470;53.550;9.926;2023-05-07T04:24:50;14.43;;;8.75;;
43823;SDS011;29470;53.550;9.926;2023-05-07T04:29:54;14.40;;;8.95;;
43823;SDS011;29470;53.550;9.926;2023-05-07T04:34:59;13.00;;;8.15;;
43823;SDS011;29470;53.550;9.926;2023-05-07T04:40:01;14.18;;;8.70;;
43823;SDS011;29470;53.550;9.926;2023-05-07T04:45:07;14.23;;;8.75;;
43823;SDS011;29470;53.550;9.926;2023-05-07T04:55:18;14.68;;;8.73;;
43823;SDS011;29470;53.550;9.926;2023-05-07T05:06:14;12.30;;;7.90;;
43823;SDS011;29470;53.550;9.926;2023-05-07T05:11:17;14.75;;;8.82;;
43823;SDS011;29470;53.550;9.926;2023-05-07T05:16:28;14.18;;;8.55;;
43823;SDS011;29470;53.550;9.926;2023-05-07T05:21:32;11.30;;;7.55;;
43823;SDS011;29470;53.550;9.926;2023-05-07T05:26:41;14.55;;;7.82;;
43823;SDS011;29470;53.550;9.926;2023-05-07T05:31:45;14.07;;;7.80;;
43823;SDS011;29470;53.550;9.926;2023-05-07T05:36:50;12.48;;;7.32;;
43823;SDS011;29470;53.550;9.926;2023-05-07T05:41:53;12.90;;;7.40;;
43823;SDS011;29470;53.550;9.926;2023-05-07T05:46:58;13.15;;;7.97;;
43823;SDS011;29470;53.550;9.926;2023-05-07T05:52:02;13.70;;;8.00;;
43823;SDS011;29470;53.550;9.926;2023-05-07T05:57:06;12.88;;;7.70;;
43823;SDS011;29470;53.550;9.926;2023-05-07T06:02:10;14.07;;;8.18;;
43823;SDS011;29470;53.550;9.926;2023-05-07T06:07:16;11.32;;;7.68;;
43823;SDS011;29470;53.550;9.926;2023-05-07T06:12:19;12.95;;;8.30;;
43823;SDS011;29470;53.550;9.926;2023-05-07T06:17:24;12.27;;;7.10;;
43823;SDS011;29470;53.550;9.926;2023-05-07T06:22:35;12.43;;;7.57;;
43823;SDS011;29470;53.550;9.926;2023-05-07T06:27:39;12.00;;;7.28;;
43823;SDS011;29470;53.550;9.926;2023-05-07T06:32:53;12.73;;;8.15;;
43823;SDS011;29470;53.550;9.926;2023-05-07T06:39:24;11.55;;;7.82;;
43823;SDS011;29470;53.550;9.926;2023-05-07T06:44:41;12.68;;;7.45;;
43823;SDS011;29470;53.550;9.926;2023-05-07T06:50:31;12.50;;;7.50;;
43823;SDS011;29470;53.550;9.926;2023-05-07T06:55:40;11.75;;;7.55;;
43823;SDS011;29470;53.550;9.926;2023-05-07T07:00:44;13.15;;;8.05;;
43823;SDS011;29470;53.550;9.926;2023-05-07T07:05:52;12.90;;;7.55;;
43823;SDS011;29470;53.550;9.926;2023-05-07T07:10:55;13.30;;;7.40;;
43823;SDS011;29470;53.550;9.926;2023-05-07T07:15:58;14.80;;;7.70;;
43823;SDS011;29470;53.550;9.926;2023-05-07T07:21:04;12.10;;;7.45;;
43823;SDS011;29470;53.550;9.926;2023-05-07T07:26:07;12.52;;;7.35;;
43823;SDS011;29470;53.550;9.926;2023-05-07T07:31:10;10.27;;;7.22;;
43823;SDS011;29470;53.550;9.926;2023-05-07T07:36:16;9.18;;;6.22;;
43823;SDS011;29470;53.550;9.926;2023-05-07T07:41:19;11.88;;;6.90;;
43823;SDS011;29470;53.550;9.926;2023-05-07T07:46:23;9.73;;;6.35;;
43823;SDS011;29470;53.550;9.926;2023-05-07T07:51:30;10.35;;;6.53;;
43823;SDS011;29470;53.550;9.926;2023-05-07T07:56:34;9.85;;;6.35;;
43823;SDS011;29470;53.550;9.926;2023-05-07T08:01:39;9.25;;;6.38;;
43823;SDS011;29470;53.550;9.926;2023-05-07T08:06:45;8.55;;;6.07;;
43823;SDS011;29470;53.550;9.926;2023-05-07T08:11:48;10.25;;;6.50;;
43823;SDS011;29470;53.550;9.926;2023-05-07T08:16:51;8.85;;;5.80;;
43823;SDS011;29470;53.550;9.926;2023-05-07T08:21:55;8.65;;;5.65;;
43823;SDS011;29470;53.550;9.926;2023-05-07T08:27:00;8.85;;;6.30;;
43823;SDS011;29470;53.550;9.926;2023-05-07T08:32:03;8.55;;;6.00;;
43823;SDS011;29470;53.550;9.926;2023-05-07T08:37:07;8.90;;;5.72;;
43823;SDS011;29470;53.550;9.926;2023-05-07T08:42:11;8.48;;;5.40;;
43823;SDS011;29470;53.550;9.926;2023-05-07T08:47:17;7.75;;;5.50;;
43823;SDS011;29470;53.550;9.926;2023-05-07T08:52:25;8.35;;;5.47;;
43823;SDS011;29470;53.550;9.926;2023-05-07T08:57:29;7.63;;;5.30;;
43823;SDS011;29470;53.550;9.926;2023-05-07T09:02:33;8.30;;;5.45;;
43823;SDS011;29470;53.550;9.926;2023-05-07T09:07:39;7.88;;;5.43;;
43823;SDS011;29470;53.550;9.926;2023-05-07T09:12:42;8.23;;;5.80;;
43823;SDS011;29470;53.550;9.926;2023-05-07T09:17:46;9.10;;;6.50;;
43823;SDS011;29470;53.550;9.926;2023-05-07T09:22:54;10.75;;;6.50;;
43823;SDS011;29470;53.550;9.926;2023-05-07T09:28:02;8.10;;;5.93;;
43823;SDS011;29470;53.550;9.926;2023-05-07T09:33:06;8.88;;;6.45;;
43823;SDS011;29470;53.550;9.926;2023-05-07T09:38:14;8.68;;;5.93;;
43823;SDS011;29470;53.550;9.926;2023-05-07T09:43:23;9.48;;;5.78;;
43823;SDS011;29470;53.550;9.926;2023-05-07T09:48:31;9.50;;;5.93;;
43823;SDS011;29470;53.550;9.926;2023-05-07T09:53:38;7.78;;;5.70;;
43823;SDS011;29470;53.550;9.926;2023-05-07T09:58:43;9.65;;;5.82;;
43823;SDS011;29470;53.550;9.926;2023-05-07T10:03:48;8.30;;;6.15;;
43823;SDS011;29470;53.550;9.926;2023-05-07T10:08:55;7.95;;;5.88;;
43823;SDS011;29470;53.550;9.926;2023-05-07T10:13:58;9.23;;;6.53;;
43823;SDS011;29470;53.550;9.926;2023-05-07T10:19:06;10.27;;;6.25;;
43823;SDS011;29470;53.550;9.926;2023-05-07T10:24:15;11.02;;;7.35;;
43823;SDS011;29470;53.550;9.926;2023-05-07T10:29:25;10.75;;;8.65;;
43823;SDS011;29470;53.550;9.926;2023-05-07T10:34:37;9.65;;;6.10;;
43823;SDS011;29470;53.550;9.926;2023-05-07T10:39:46;10.18;;;6.00;;
43823;SDS011;29470;53.550;9.926;2023-05-07T10:44:50;8.25;;;5.95;;
43823;SDS011;29470;53.550;9.926;2023-05-07T10:55:37;8.07;;;5.28;;
43823;SDS011;29470;53.550;9.926;2023-05-07T11:00:45;6.72;;;5.20;;
43823;SDS011;29470;53.550;9.926;2023-05-07T11:06:11;7.15;;;5.00;;
43823;SDS011;29470;53.550;9.926;2023-05-07T11:17:02;6.72;;;4.70;;
43823;SDS011;29470;53.550;9.926;2023-05-07T11:22:09;6.55;;;4.78;;
43823;SDS011;29470;53.550;9.926;2023-05-07T11:27:53;7.70;;;4.95;;
43823;SDS011;29470;53.550;9.926;2023-05-07T11:32:57;7.22;;;5.13;;
43823;SDS011;29470;53.550;9.926;2023-05-07T11:38:01;7.53;;;5.00;;
43823;SDS011;29470;53.550;9.926;2023-05-07T11:43:11;7.57;;;4.97;;
43823;SDS011;29470;53.550;9.926;2023-05-07T11:48:15;6.97;;;5.05;;
43823;SDS011;29470;53.550;9.926;2023-05-07T11:53:18;7.78;;;5.20;;
43823;SDS011;29470;53.550;9.926;2023-05-07T11:58:23;6.75;;;4.63;;
43823;SDS011;29470;53.550;9.926;2023-05-07T12:03:27;6.25;;;4.85;;
43823;SDS011;29470;53.550;9.926;2023-05-07T12:13:40;8.02;;;4.45;;
43823;SDS011;29470;53.550;9.926;2023-05-07T12:18:44;5.78;;;4.47;;
43823;SDS011;29470;53.550;9.926;2023-05-07T12:23:47;5.70;;;4.13;;
43823;SDS011;29470;53.550;9.926;2023-05-07T12:28:51;5.68;;;4.20;;
43823;SDS011;29470;53.550;9.926;2023-05-07T12:33:54;5.13;;;3.80;;
43823;SDS011;29470;53.550;9.926;2023-05-07T12:38:57;6.70;;;3.80;;
43823;SDS011;29470;53.550;9.926;2023-05-07T12:44:05;5.13;;;3.75;;
43823;SDS011;29470;53.550;9.926;2023-05-07T12:49:08;5.90;;;3.78;;
43823;SDS011;29470;53.550;9.926;2023-05-07T12:54:11;4.65;;;3.22;;
43823;SDS011;29470;53.550;9.926;2023-05-07T12:59:15;4.78;;;3.67;;
43823;SDS011;29470;53.550;9.926;2023-05-07T13:04:18;5.75;;;3.63;;
43823;SDS011;29470;53.550;9.926;2023-05-07T13:09:22;5.68;;;3.58;;
43823;SDS011;29470;53.550;9.926;2023-05-07T13:14:28;4.07;;;3.45;;
43823;SDS011;29470;53.550;9.926;2023-05-07T13:19:31;5.38;;;3.40;;
43823;SDS011;29470;53.550;9.926;2023-05-07T13:24:34;4.00;;;3.13;;
43823;SDS011;29470;53.550;9.926;2023-05-07T13:29:38;5.50;;;4.03;;
43823;SDS011;29470;53.550;9.926;2023-05-07T13:34:41;4.57;;;3.33;;
43823;SDS011;29470;53.550;9.926;2023-05-07T13:39:44;4.28;;;3.10;;
43823;SDS011;29470;53.550;9.926;2023-05-07T13:44:48;4.65;;;3.30;;
43823;SDS011;29470;53.550;9.926;2023-05-07T13:49:51;4.10;;;2.70;;
43823;SDS011;29470;53.550;9.926;2023-05-07T13:54:54;4.38;;;3.10;;
43823;SDS011;29470;53.550;9.926;2023-05-07T13:59:59;4.13;;;3.08;;
43823;SDS011;29470;53.550;9.926;2023-05-07T14:05:02;4.30;;;3.70;;
43823;SDS011;29470;53.550;9.926;2023-05-07T14:10:05;4.75;;;3.83;;
43823;SDS011;29470;53.550;9.926;2023-05-07T14:15:11;4.03;;;2.80;;
43823;SDS011;29470;53.550;9.926;2023-05-07T14:20:14;5.07;;;3.00;;
43823;SDS011;29470;53.550;9.926;2023-05-07T14:25:16;3.40;;;2.60;;
43823;SDS011;29470;53.550;9.926;2023-05-07T14:30:26;4.35;;;3.00;;
43823;SDS011;29470;53.550;9.926;2023-05-07T14:35:28;3.50;;;2.95;;
43823;SDS011;29470;53.550;9.926;2023-05-07T14:40:31;4.45;;;3.00;;
43823;SDS011;29470;53.550;9.926;2023-05-07T14:45:35;4.47;;;2.70;;
43823;SDS011;29470;53.550;9.926;2023-05-07T14:50:38;4.28;;;3.15;;
43823;SDS011;29470;53.550;9.926;2023-05-07T14:55:41;3.42;;;2.95;;
43823;SDS011;29470;53.550;9.926;2023-05-07T15:00:46;3.72;;;2.63;;
43823;SDS011;29470;53.550;9.926;2023-05-07T15:05:50;4.60;;;2.92;;
43823;SDS011;29470;53.550;9.926;2023-05-07T15:10:53;5.40;;;3.00;;
43823;SDS011;29470;53.550;9.926;2023-05-07T15:15:57;4.32;;;2.50;;
43823;SDS011;29470;53.550;9.926;2023-05-07T15:21:00;4.47;;;2.55;;
43823;SDS011;29470;53.550;9.926;2023-05-07T15:26:04;2.83;;;2.45;;
43823;SDS011;29470;53.550;9.926;2023-05-07T15:31:10;4.15;;;2.88;;
43823;SDS011;29470;53.550;9.926;2023-05-07T15:36:13;3.78;;;2.42;;
43823;SDS011;29470;53.550;9.926;2023-05-07T15:41:16;3.65;;;2.40;;
43823;SDS011;29470;53.550;9.926;2023-05-07T15:46:22;4.25;;;2.60;;
43823;SDS011;29470;53.550;9.926;2023-05-07T15:51:27;4.50;;;3.22;;
43823;SDS011;29470;53.550;9.926;2023-05-07T15:56:32;4.80;;;2.80;;
43823;SDS011;29470;53.550;9.926;2023-05-07T16:01:36;4.10;;;2.65;;
43823;SDS011;29470;53.550;9.926;2023-05-07T16:06:39;4.50;;;2.40;;
43823;SDS011;29470;53.550;9.926;2023-05-07T16:11:43;3.85;;;2.67;;
43823;SDS011;29470;53.550;9.926;2023-05-07T16:16:48;3.50;;;2.60;;
43823;SDS011;29470;53.550;9.926;2023-05-07T16:21:51;3.75;;;2.60;;
43823;SDS011;29470;53.550;9.926;2023-05-07T16:26:54;3.80;;;2.20;;
43823;SDS011;29470;53.550;9.926;2023-05-07T16:31:58;4.10;;;2.40;;
43823;SDS011;29470;53.550;9.926;2023-05-07T16:37:02;6.15;;;2.78;;
43823;SDS011;29470;53.550;9.926;2023-05-07T16:42:04;4.15;;;2.45;;
43823;SDS011;29470;53.550;9.926;2023-05-07T16:47:09;3.72;;;2.65;;
43823;SDS011;29470;53.550;9.926;2023-05-07T16:52:12;2.97;;;2.30;;
43823;SDS011;29470;53.550;9.926;2023-05-07T16:57:14;3.03;;;2.58;;
43823;SDS011;29470;53.550;9.926;2023-05-07T17:02:19;3.00;;;2.30;;
43823;SDS011;29470;53.550;9.926;2023-05-07T17:07:21;3.42;;;2.58;;
43823;SDS011;29470;53.550;9.926;2023-05-07T17:12:26;3.22;;;2.30;;
43823;SDS011;29470;53.550;9.926;2023-05-07T17:17:31;4.07;;;2.50;;
43823;SDS011;29470;53.550;9.926;2023-05-07T17:22:34;3.53;;;2.30;;
43823;SDS011;29470;53.550;9.926;2023-05-07T17:27:37;2.78;;;2.20;;
43823;SDS011;29470;53.550;9.926;2023-05-07T17:32:41;3.45;;;2.60;;
43823;SDS011;29470;53.550;9.926;2023-05-07T17:37:44;4.95;;;2.63;;
43823;SDS011;29470;53.550;9.926;2023-05-07T17:42:53;3.85;;;2.50;;
43823;SDS011;29470;53.550;9.926;2023-05-07T17:48:01;3.83;;;2.83;;
43823;SDS011;29470;53.550;9.926;2023-05-07T17:53:04;4.88;;;2.85;;
43823;SDS011;29470;53.550;9.926;2023-05-07T17:58:08;3.90;;;2.40;;
43823;SDS011;29470;53.550;9.926;2023-05-07T18:03:12;5.38;;;2.60;;
43823;SDS011;29470;53.550;9.926;2023-05-07T18:08:15;5.43;;;2.50;;
43823;SDS011;29470;53.550;9.926;2023-05-07T18:13:18;7.88;;;2.90;;
43823;SDS011;29470;53.550;9.926;2023-05-07T18:18:23;5.93;;;2.53;;
43823;SDS011;29470;53.550;9.926;2023-05-07T18:23:28;4.35;;;2.60;;
43823;SDS011;29470;53.550;9.926;2023-05-07T18:28:31;3.63;;;2.65;;
43823;SDS011;29470;53.550;9.926;2023-05-07T18:33:35;4.95;;;2.70;;
43823;SDS011;29470;53.550;9.926;2023-05-07T18:38:38;4.30;;;2.58;;
43823;SDS011;29470;53.550;9.926;2023-05-07T18:43:43;5.35;;;2.45;;
43823;SDS011;29470;53.550;9.926;2023-05-07T18:48:48;4.25;;;2.90;;
43823;SDS011;29470;53.550;9.926;2023-05-07T18:53:51;3.22;;;2.10;;
43823;SDS011;29470;53.550;9.926;2023-05-07T18:58:56;5.20;;;2.22;;
43823;SDS011;29470;53.550;9.926;2023-05-07T19:04:00;4.43;;;2.30;;
43823;SDS011;29470;53.550;9.926;2023-05-07T19:09:03;2.85;;;2.35;;
43823;SDS011;29470;53.550;9.926;2023-05-07T19:14:06;4.85;;;3.20;;
43823;SDS011;29470;53.550;9.926;2023-05-07T19:19:13;4.78;;;3.25;;
43823;SDS011;29470;53.550;9.926;2023-05-07T19:24:16;3.15;;;2.20;;
43823;SDS011;29470;53.550;9.926;2023-05-07T19:29:19;3.38;;;2.50;;
43823;SDS011;29470;53.550;9.926;2023-05-07T19:34:24;5.80;;;2.67;;
43823;SDS011;29470;53.550;9.926;2023-05-07T19:39:26;3.30;;;2.47;;
43823;SDS011;29470;53.550;9.926;2023-05-07T19:44:29;5.60;;;2.50;;
43823;SDS011;29470;53.550;9.926;2023-05-07T19:49:35;6.97;;;4.85;;
43823;SDS011;29470;53.550;9.926;2023-05-07T19:54:38;3.17;;;2.20;;
43823;SDS011;29470;53.550;9.926;2023-05-07T19:59:41;4.65;;;2.28;;
43823;SDS011;29470;53.550;9.926;2023-05-07T20:04:45;3.63;;;2.58;;
43823;SDS011;29470;53.550;9.926;2023-05-07T20:09:48;5.93;;;2.58;;
43823;SDS011;29470;53.550;9.926;2023-05-07T20:14:52;4.63;;;2.58;;
43823;SDS011;29470;53.550;9.926;2023-05-07T20:19:56;5.35;;;3.35;;
43823;SDS011;29470;53.550;9.926;2023-05-07T20:24:59;7.13;;;2.90;;
43823;SDS011;29470;53.550;9.926;2023-05-07T20:30:01;5.22;;;3.00;;
43823;SDS011;29470;53.550;9.926;2023-05-07T20:35:06;4.03;;;2.55;;
43823;SDS011;29470;53.550;9.926;2023-05-07T20:40:09;3.95;;;2.40;;
43823;SDS011;29470;53.550;9.926;2023-05-07T20:45:13;5.18;;;3.10;;
43823;SDS011;29470;53.550;9.926;2023-05-07T20:50:17;4.28;;;2.50;;
43823;SDS011;29470;53.550;9.926;2023-05-07T20:55:20;3.67;;;2.72;;
43823;SDS011;29470;53.550;9.926;2023-05-07T21:00:23;4.65;;;3.13;;
43823;SDS011;29470;53.550;9.926;2023-05-07T21:05:27;5.75;;;3.60;;
43823;SDS011;29470;53.550;9.926;2023-05-07T21:10:30;3.58;;;2.85;;
43823;SDS011;29470;53.550;9.926;2023-05-07T21:15:33;4.72;;;3.13;;
43823;SDS011;29470;53.550;9.926;2023-05-07T21:20:37;3.40;;;2.75;;
43823;SDS011;29470;53.550;9.926;2023-05-07T21:25:40;4.75;;;3.00;;
43823;SDS011;29470;53.550;9.926;2023-05-07T21:30:47;4.90;;;3.27;;
43823;SDS011;29470;53.550;9.926;2023-05-07T21:35:51;4.25;;;3.20;;
43823;SDS011;29470;53.550;9.926;2023-05-07T21:40:55;4.80;;;3.00;;
43823;SDS011;29470;53.550;9.926;2023-05-07T21:45:58;4.07;;;2.70;;
43823;SDS011;29470;53.550;9.926;2023-05-07T21:51:05;3.63;;;2.90;;
43823;SDS011;29470;53.550;9.926;2023-05-07T21:56:09;4.30;;;2.40;;
43823;SDS011;29470;53.550;9.926;2023-05-07T22:01:11;4.50;;;2.72;;
43823;SDS011;29470;53.550;9.926;2023-05-07T22:06:16;3.45;;;2.70;;
43823;SDS011;29470;53.550;9.926;2023-05-07T22:11:22;5.10;;;2.73;;
43823;SDS011;29470;53.550;9.926;2023-05-07T22:16:24;5.07;;;3.00;;
43823;SDS011;29470;53.550;9.926;2023-05-07T22:21:29;3.40;;;2.42;;
43823;SDS011;29470;53.550;9.926;2023-05-07T22:26:32;3.92;;;2.92;;
43823;SDS011;29470;53.550;9.926;2023-05-07T22:31:35;4.90;;;2.92;;
43823;SDS011;29470;53.550;9.926;2023-05-07T22:36:39;4.20;;;2.90;;
43823;SDS011;29470;53.550;9.926;2023-05-07T22:41:42;3.70;;;2.88;;
43823;SDS011;29470;53.550;9.926;2023-05-07T22:46:45;6.57;;;2.88;;
43823;SDS011;29470;53.550;9.926;2023-05-07T22:51:51;3.78;;;2.72;;
43823;SDS011;29470;53.550;9.926;2023-05-07T22:56:54;3.90;;;2.75;;
43823;SDS011;29470;53.550;9.926;2023-05-07T23:01:58;8.10;;;3.22;;
43823;SDS011;29470;53.550;9.926;2023-05-07T23:07:02;3.97;;;3.10;;
43823;SDS011;29470;53.550;9.926;2023-05-07T23:12:05;3.92;;;3.17;;
43823;SDS011;29470;53.550;9.926;2023-05-07T23:17:08;3.97;;;3.13;;
43823;SDS011;29470;53.550;9.926;2023-05-07T23:22:13;4.95;;;3.20;;
43823;SDS011;29470;53.550;9.926;2023-05-07T23:27:16;5.10;;;3.67;;
43823;SDS011;29470;53.550;9.926;2023-05-07T23:32:18;4.22;;;3.25;;
43823;SDS011;29470;53.550;9.926;2023-05-07T23:37:23;4.13;;;3.17;;
43823;SDS011;29470;53.550;9.926;2023-05-07T23:42:25;3.40;;;2.90;;
43823;SDS011;29470;53.550;9.926;2023-05-07T23:47:28;3.95;;;3.22;;
43823;SDS011;29470;53.550;9.926;2023-05-07T23:52:33;4.78;;;3.22;;
43823;SDS011;29470;53.550;9.926;2023-05-07T23:57:35;5.00;;;3.13;;
